createdAt,value
2022-09-15T00:00:38.451Z,100580.88
2022-09-15T00:02:40.008Z,100581.09
2022-09-15T00:04:42.644Z,100582.80
2022-09-15T00:06:44.156Z,100585.91
2022-09-15T00:08:45.835Z,100580.77
2022-09-15T00:10:49.232Z,100584.58
2022-09-15T00:12:50.778Z,100586.83
2022-09-15T00:14:52.525Z,100590.68
2022-09-15T00:16:54.082Z,100597.26
2022-09-15T00:18:55.621Z,100595.87
2022-09-15T00:20:57.442Z,100593.55
2022-09-15T00:22:58.962Z,100591.39
2022-09-15T00:25:00.541Z,100596.50
2022-09-15T00:27:02.140Z,100596.67
2022-09-15T00:29:04.063Z,100593.88
2022-09-15T00:31:13.617Z,100595.94
2022-09-15T00:33:15.376Z,100592.08
2022-09-15T00:35:16.958Z,100592.54
2022-09-15T00:37:18.682Z,100592.02
2022-09-15T00:39:20.665Z,100594.94
2022-09-15T00:41:22.960Z,100598.23
2022-09-15T00:43:42.713Z,100599.08
2022-09-15T00:45:45.116Z,100602.20
2022-09-15T00:47:46.629Z,100602.83
2022-09-15T00:49:49.780Z,100601.28
2022-09-15T00:51:52.786Z,100598.62
2022-09-15T00:53:57.497Z,100596.09
2022-09-15T00:55:59.279Z,100601.19
2022-09-15T00:58:03.006Z,100604.69
2022-09-15T01:00:06.685Z,100603.41
2022-09-15T01:02:29.582Z,100600.89
2022-09-15T01:04:31.213Z,100601.70
2022-09-15T01:06:36.644Z,100607.11
2022-09-15T01:08:58.475Z,100609.27
2022-09-15T01:11:00.513Z,100610.35
2022-09-15T01:13:03.475Z,100616.62
2022-09-15T01:15:05.465Z,100614.50
2022-09-15T01:17:11.488Z,100615.73
2022-09-15T01:19:37.410Z,100613.48
2022-09-15T01:21:52.891Z,100613.89
2022-09-15T01:24:01.139Z,100613.37
2022-09-15T01:26:22.472Z,100615.20
2022-09-15T01:28:43.838Z,100617.05
2022-09-15T01:30:47.145Z,100617.85
2022-09-15T01:33:05.557Z,100619.28
2022-09-15T01:35:11.426Z,100614.17
2022-09-15T01:37:13.647Z,100609.63
2022-09-15T01:39:22.273Z,100606.14
2022-09-15T01:41:31.630Z,100605.86
2022-09-15T01:43:33.960Z,100608.48
2022-09-15T01:45:35.522Z,100609.63
2022-09-15T01:47:37.107Z,100604.75
2022-09-15T01:49:41.768Z,100604.32
2022-09-15T01:51:44.996Z,100606.63
2022-09-15T01:53:46.590Z,100602.71
2022-09-15T01:55:55.046Z,100604.53
2022-09-15T01:57:57.318Z,100600.45
2022-09-15T01:59:59.027Z,100604.04
2022-09-15T02:02:08.116Z,100604.35
2022-09-15T02:04:23.739Z,100599.38
2022-09-15T02:06:36.958Z,100600.67
2022-09-15T02:08:40.815Z,100599.52
2022-09-15T02:10:51.640Z,100604.04
2022-09-15T02:13:03.213Z,100606.27
2022-09-15T02:15:08.692Z,100595.73
2022-09-15T02:17:12.193Z,100599.69
2022-09-15T02:19:22.355Z,100605.03
2022-09-15T02:21:35.137Z,100600.53
2022-09-15T02:23:43.692Z,100596.89
2022-09-15T02:25:47.338Z,100592.41
2022-09-15T02:27:52.949Z,100588.69
2022-09-15T02:29:55.789Z,100594.87
2022-09-15T02:31:57.569Z,100595.11
2022-09-15T02:34:00.591Z,100595.04
2022-09-15T02:36:02.232Z,100595.60
2022-09-15T02:38:05.351Z,100600.23
2022-09-15T02:40:07.242Z,100603.09
2022-09-15T02:42:08.849Z,100608.45
2022-09-15T02:44:10.410Z,100607.19
2022-09-15T02:46:12.451Z,100609.97
2022-09-15T02:48:15.425Z,100603.11
2022-09-15T02:50:17.557Z,100605.40
2022-09-15T02:52:22.278Z,100605.21
2022-09-15T02:54:23.936Z,100605.50
2022-09-15T02:56:25.588Z,100605.77
2022-09-15T02:58:27.136Z,100605.56
2022-09-15T03:00:28.655Z,100604.84
2022-09-15T03:02:30.502Z,100606.13
2022-09-15T03:04:32.111Z,100608.56
2022-09-15T03:06:36.569Z,100615.15
2022-09-15T03:08:47.671Z,100616.33
2022-09-15T03:10:49.201Z,100615.62
2022-09-15T03:12:52.584Z,100614.70
2022-09-15T03:14:54.113Z,100615.41
2022-09-15T03:16:55.644Z,100613.52
2022-09-15T03:18:59.311Z,100618.34
2022-09-15T03:21:02.196Z,100622.79
2022-09-15T03:23:03.798Z,100623.09
2022-09-15T03:25:06.606Z,100625.52
2022-09-15T03:27:08.188Z,100631.04
2022-09-15T03:29:09.765Z,100630.61
2022-09-15T03:31:13.705Z,100631.46
2022-09-15T03:33:15.293Z,100630.78
2022-09-15T03:35:17.071Z,100634.36
2022-09-15T03:37:18.590Z,100635.86
2022-09-15T03:39:20.177Z,100635.19
2022-09-15T03:41:21.689Z,100638.48
2022-09-15T03:43:23.478Z,100635.63
2022-09-15T03:45:25.132Z,100637.89
2022-09-15T03:47:26.707Z,100639.46
2022-09-15T03:49:28.184Z,100638.85
2022-09-15T03:51:29.691Z,100638.38
2022-09-15T03:53:39.195Z,100639.67
2022-09-15T03:55:40.710Z,100638.99
2022-09-15T03:57:42.448Z,100643.15
2022-09-15T03:59:44.186Z,100642.56
2022-09-15T04:01:46.139Z,100640.19
2022-09-15T04:03:51.124Z,100637.51
2022-09-15T04:05:53.534Z,100637.23
2022-09-15T04:07:55.076Z,100636.86
2022-09-15T04:09:57.316Z,100634.53
2022-09-15T04:11:58.861Z,100633.33
2022-09-15T04:14:00.378Z,100629.95
2022-09-15T04:16:02.992Z,100632.75
2022-09-15T04:18:05.095Z,100634.42
2022-09-15T04:20:07.515Z,100639.80
2022-09-15T04:22:12.327Z,100640.27
2022-09-15T04:24:15.890Z,100641.23
2022-09-15T04:26:19.975Z,100640.33
2022-09-15T04:28:22.953Z,100642.64
2022-09-15T04:30:24.523Z,100645.61
2022-09-15T04:32:26.224Z,100641.17
2022-09-15T04:34:27.856Z,100642.93
2022-09-15T04:36:29.649Z,100643.15
2022-09-15T04:38:31.735Z,100649.63
2022-09-15T04:40:34.030Z,100648.11
2022-09-15T04:42:36.279Z,100650.48
2022-09-15T04:44:38.054Z,100647.58
2022-09-15T04:46:39.697Z,100651.77
2022-09-15T04:48:42.990Z,100651.50
2022-09-15T04:50:52.827Z,100653.29
2022-09-15T04:52:54.386Z,100652.80
2022-09-15T04:54:55.974Z,100655.46
2022-09-15T04:56:57.816Z,100654.47
2022-09-15T04:59:03.583Z,100655.55
2022-09-15T05:01:13.471Z,100656.33
2022-09-15T05:03:16.407Z,100658.53
2022-09-15T05:05:17.948Z,100660.73
2022-09-15T05:07:19.704Z,100659.26
2022-09-15T05:09:21.243Z,100660.04
2022-09-15T05:11:22.903Z,100657.05
2022-09-15T05:13:26.541Z,100658.40
2022-09-15T05:15:30.238Z,100662.23
2022-09-15T05:17:32.603Z,100665.09
2022-09-15T05:19:34.877Z,100664.29
2022-09-15T05:21:37.617Z,100662.83
2022-09-15T05:23:39.323Z,100665.81
2022-09-15T05:25:41.159Z,100668.19
2022-09-15T05:27:42.733Z,100666.91
2022-09-15T05:29:44.268Z,100670.05
2022-09-15T05:31:45.852Z,100665.15
2022-09-15T05:33:48.059Z,100667.35
2022-09-15T05:35:57.885Z,100670.49
2022-09-15T05:37:59.431Z,100673.30
2022-09-15T05:40:03.231Z,100674.63
2022-09-15T05:42:08.817Z,100679.89
2022-09-15T05:44:10.410Z,100681.22
2022-09-15T05:46:12.243Z,100685.25
2022-09-15T05:48:13.878Z,100687.73
2022-09-15T05:50:16.283Z,100690.15
2022-09-15T05:52:18.794Z,100686.77
2022-09-15T05:54:20.290Z,100688.16
2022-09-15T05:56:21.885Z,100687.92
2022-09-15T05:58:23.547Z,100691.86
2022-09-15T06:00:25.068Z,100695.17
2022-09-15T06:02:26.666Z,100695.41
2022-09-15T06:04:28.311Z,100701.39
2022-09-15T06:06:30.779Z,100706.19
2022-09-15T06:08:44.277Z,100707.20
2022-09-15T06:10:47.483Z,100706.66
2022-09-15T06:12:50.740Z,100708.95
2022-09-15T06:14:53.183Z,100713.54
2022-09-15T06:16:54.694Z,100716.48
2022-09-15T06:18:56.199Z,100718.63
2022-09-15T06:21:02.732Z,100722.58
2022-09-15T06:23:04.432Z,100722.31
2022-09-15T06:25:06.449Z,100722.98
2022-09-15T06:27:07.954Z,100725.34
2022-09-15T06:29:11.397Z,100724.76
2022-09-15T06:31:13.173Z,100728.48
2022-09-15T06:33:15.415Z,100727.54
2022-09-15T06:35:17.446Z,100730.70
2022-09-15T06:37:19.114Z,100732.25
2022-09-15T06:39:20.634Z,100731.50
2022-09-15T06:41:22.255Z,100735.83
2022-09-15T06:43:23.782Z,100736.48
2022-09-15T06:45:25.474Z,100743.11
2022-09-15T06:47:33.954Z,100743.86
2022-09-15T06:49:35.583Z,100745.81
2022-09-15T06:51:37.122Z,100747.46
2022-09-15T06:53:38.738Z,100749.29
2022-09-15T06:55:40.285Z,100750.81
2022-09-15T06:57:41.822Z,100759.02
2022-09-15T06:59:43.783Z,100759.85
2022-09-15T07:01:47.584Z,100764.59
2022-09-15T07:03:49.426Z,100764.61
2022-09-15T07:05:51.155Z,100762.61
2022-09-15T07:07:53.098Z,100762.74
2022-09-15T07:09:54.714Z,100762.13
2022-09-15T07:11:56.298Z,100766.86
2022-09-15T07:13:57.859Z,100773.28
2022-09-15T07:16:00.359Z,100775.07
2022-09-15T07:18:01.968Z,100779.09
2022-09-15T07:20:04.666Z,100779.35
2022-09-15T07:22:06.180Z,100780.86
2022-09-15T07:24:15.803Z,100781.13
2022-09-15T07:26:18.428Z,100780.79
2022-09-15T07:28:20.110Z,100783.27
2022-09-15T07:30:22.695Z,100785.54
2022-09-15T07:32:24.532Z,100785.99
2022-09-15T07:34:28.116Z,100786.29
2022-09-15T07:36:29.956Z,100787.00
2022-09-15T07:38:31.433Z,100785.35
2022-09-15T07:40:34.526Z,100787.33
2022-09-15T07:42:36.411Z,100792.23
2022-09-15T07:44:43.919Z,100792.88
2022-09-15T07:46:45.524Z,100791.73
2022-09-15T07:48:48.118Z,100791.86
2022-09-15T07:50:49.686Z,100787.95
2022-09-15T07:52:51.309Z,100789.80
2022-09-15T07:54:52.789Z,100784.75
2022-09-15T07:56:54.447Z,100792.02
2022-09-15T07:58:55.973Z,100794.64
2022-09-15T08:01:01.290Z,100793.52
2022-09-15T08:03:07.135Z,100795.89
2022-09-15T08:05:08.698Z,100790.45
2022-09-15T08:07:10.509Z,100797.23
2022-09-15T08:09:14.883Z,100800.36
2022-09-15T08:11:19.039Z,100799.75
2022-09-15T08:13:20.880Z,100800.14
2022-09-15T08:15:22.411Z,100798.98
2022-09-15T08:17:24.019Z,100802.61
2022-09-15T08:19:25.509Z,100803.71
2022-09-15T08:21:28.255Z,100799.34
2022-09-15T08:23:29.788Z,100801.02
2022-09-15T08:25:31.278Z,100800.17
2022-09-15T08:27:32.883Z,100799.84
2022-09-15T08:29:35.006Z,100803.91
2022-09-15T08:31:36.622Z,100805.65
2022-09-15T08:33:40.823Z,100802.95
2022-09-15T08:35:46.205Z,100801.83
2022-09-15T08:37:47.723Z,100806.31
2022-09-15T08:39:49.233Z,100811.02
2022-09-15T08:41:51.662Z,100813.61
2022-09-15T08:43:56.134Z,100814.84
2022-09-15T08:46:01.059Z,100819.81
2022-09-15T08:48:03.702Z,100824.59
2022-09-15T08:50:08.033Z,100826.98
2022-09-15T08:52:27.963Z,100829.77
2022-09-15T08:54:29.551Z,100835.11
2022-09-15T08:56:31.071Z,100840.54
2022-09-15T08:58:34.365Z,100844.65
2022-09-15T09:00:35.886Z,100845.04
2022-09-15T09:02:37.426Z,100844.58
2022-09-15T09:04:48.212Z,100847.75
2022-09-15T09:06:59.797Z,100848.29
2022-09-15T09:09:20.031Z,100845.75
2022-09-15T09:11:25.494Z,100838.73
2022-09-15T09:13:45.613Z,100836.92
2022-09-15T09:16:06.127Z,100841.82
2022-09-15T09:18:11.047Z,100838.49
2022-09-15T09:20:13.048Z,100836.42
2022-09-15T09:22:16.103Z,100837.13
2022-09-15T09:24:18.715Z,100842.59
2022-09-15T09:26:20.294Z,100841.80
2022-09-15T09:29:00.341Z,100845.67
2022-09-15T09:31:06.637Z,100843.98
2022-09-15T09:33:14.140Z,100847.80
2022-09-15T09:35:21.540Z,100848.33
2022-09-15T09:37:23.911Z,100844.86
2022-09-15T09:39:25.588Z,100842.27
2022-09-15T09:41:35.753Z,100843.23
2022-09-15T09:43:37.259Z,100844.36
2022-09-15T09:45:39.061Z,100843.36
2022-09-15T09:47:40.601Z,100836.95
2022-09-15T09:49:48.497Z,100835.84
2022-09-15T09:51:52.256Z,100835.94
2022-09-15T09:53:53.977Z,100841.33
2022-09-15T09:55:56.098Z,100845.23
2022-09-15T09:58:11.607Z,100851.27
2022-09-15T10:00:32.037Z,100851.63
2022-09-15T10:02:34.113Z,100849.60
2022-09-15T10:04:35.729Z,100856.38
2022-09-15T10:06:37.309Z,100852.14
2022-09-15T10:08:39.129Z,100853.41
2022-09-15T10:10:40.715Z,100857.70
2022-09-15T10:12:42.285Z,100856.73
2022-09-15T10:14:45.478Z,100859.34
2022-09-15T10:16:57.171Z,100865.96
2022-09-15T10:18:58.779Z,100864.91
2022-09-15T10:21:01.642Z,100863.17
2022-09-15T10:23:09.945Z,100860.41
2022-09-15T10:25:44.542Z,100859.20
2022-09-15T10:28:10.837Z,100856.27
2022-09-15T10:30:12.494Z,100854.65
2022-09-15T10:32:24.852Z,100857.39
2022-09-15T10:34:31.021Z,100854.27
2022-09-15T10:36:33.652Z,100857.70
2022-09-15T10:38:39.632Z,100853.32
2022-09-15T10:40:45.224Z,100857.56
2022-09-15T10:42:46.749Z,100859.30
2022-09-15T10:44:48.219Z,100853.83
2022-09-15T10:47:03.416Z,100849.27
2022-09-15T10:49:27.742Z,100851.30
2022-09-15T10:51:48.189Z,100855.78
2022-09-15T10:54:16.728Z,100852.93
2022-09-15T10:56:25.837Z,100846.70
2022-09-15T10:58:39.853Z,100852.76
2022-09-15T11:00:43.787Z,100847.23
2022-09-15T11:02:46.476Z,100842.07
2022-09-15T11:04:48.042Z,100849.06
2022-09-15T11:07:08.151Z,100850.52
2022-09-15T11:09:26.003Z,100850.48
2022-09-15T11:11:42.839Z,100853.54
2022-09-15T11:14:11.197Z,100848.83
2022-09-15T11:16:26.177Z,100850.83
2022-09-15T11:18:27.842Z,100849.69
2022-09-15T11:20:50.730Z,100846.42
2022-09-15T11:23:11.447Z,100850.21
2022-09-15T11:25:14.028Z,100850.20
2022-09-15T11:27:15.581Z,100850.11
2022-09-15T11:29:40.069Z,100849.22
2022-09-15T11:31:45.045Z,100842.17
2022-09-15T11:33:48.589Z,100842.20
2022-09-15T11:35:51.917Z,100839.75
2022-09-15T11:37:54.070Z,100844.02
2022-09-15T11:40:00.392Z,100841.33
2022-09-15T11:42:05.577Z,100845.41
2022-09-15T11:44:25.482Z,100847.45
2022-09-15T11:46:31.950Z,100846.39
2022-09-15T11:48:35.694Z,100845.06
2022-09-15T11:50:38.172Z,100846.87
2022-09-15T11:52:42.614Z,100840.66
2022-09-15T11:54:46.202Z,100835.55
2022-09-15T11:56:47.762Z,100841.77
2022-09-15T11:59:05.729Z,100845.04
2022-09-15T12:01:08.992Z,100851.39
2022-09-15T12:03:14.029Z,100849.84
2022-09-15T12:05:17.562Z,100848.20
2022-09-15T12:07:20.804Z,100850.67
2022-09-15T12:09:22.465Z,100847.24
2022-09-15T12:11:25.025Z,100845.44
2022-09-15T12:13:26.538Z,100849.10
2022-09-15T12:15:28.140Z,100849.45
2022-09-15T12:17:39.463Z,100842.95
2022-09-15T12:19:43.598Z,100848.33
2022-09-15T12:21:53.214Z,100849.70
2022-09-15T12:23:56.601Z,100852.36
2022-09-15T12:26:05.604Z,100850.91
2022-09-15T12:28:22.370Z,100841.90
2022-09-15T12:30:40.467Z,100843.88
2022-09-15T12:32:42.342Z,100845.11
2022-09-15T12:34:59.323Z,100843.52
2022-09-15T12:37:07.598Z,100852.39
2022-09-15T12:39:28.007Z,100857.49
2022-09-15T12:41:29.657Z,100852.45
2022-09-15T12:43:31.792Z,100859.38
2022-09-15T12:45:34.342Z,100854.05
2022-09-15T12:47:38.187Z,100855.33
2022-09-15T12:49:42.447Z,100848.30
2022-09-15T12:51:47.399Z,100842.69
2022-09-15T12:54:10.587Z,100835.41
2022-09-15T12:56:23.636Z,100832.67
2022-09-15T12:58:27.522Z,100846.98
2022-09-15T13:00:30.774Z,100851.31
2022-09-15T13:02:42.402Z,100852.95
2022-09-15T13:04:54.074Z,100854.80
2022-09-15T13:07:13.981Z,100852.28
2022-09-15T13:09:23.924Z,100848.96
2022-09-15T13:11:34.810Z,100847.02
2022-09-15T13:13:46.683Z,100844.27
2022-09-15T13:15:49.221Z,100837.70
2022-09-15T13:17:50.799Z,100827.67
2022-09-15T13:19:57.859Z,100825.67
2022-09-15T13:21:59.494Z,100831.54
2022-09-15T13:24:01.038Z,100833.79
2022-09-15T13:26:02.590Z,100835.10
2022-09-15T13:28:04.160Z,100842.42
2022-09-15T13:30:09.268Z,100843.89
2022-09-15T13:32:43.676Z,100848.85
2022-09-15T13:35:04.523Z,100841.66
2022-09-15T13:39:53.425Z,100847.09
2022-09-15T13:42:03.816Z,100843.91
2022-09-15T13:44:11.231Z,100844.29
2022-09-15T13:46:18.746Z,100830.99
2022-09-15T13:48:32.319Z,100826.46
2022-09-15T13:50:34.591Z,100827.48
2022-09-15T13:52:52.303Z,100834.38
2022-09-15T13:55:12.338Z,100835.91
2022-09-15T13:57:14.358Z,100835.35
2022-09-15T13:59:17.243Z,100837.21
2022-09-15T14:01:21.167Z,100829.66
2022-09-15T14:03:49.036Z,100826.63
2022-09-15T14:05:50.671Z,100823.16
2022-09-15T14:07:55.733Z,100825.17
2022-09-15T14:09:58.270Z,100823.39
2022-09-15T14:12:01.926Z,100827.90
2022-09-15T14:14:03.505Z,100829.00
2022-09-15T14:16:11.793Z,100835.14
2022-09-15T14:18:20.836Z,100828.04
2022-09-15T14:20:31.237Z,100830.40
2022-09-15T14:22:33.542Z,100827.10
2022-09-15T14:24:35.073Z,100825.63
2022-09-15T14:26:36.687Z,100826.92
2022-09-15T14:28:38.663Z,100823.95
2022-09-15T14:30:40.200Z,100826.01
2022-09-15T14:32:44.151Z,100824.05
2022-09-15T14:34:45.674Z,100817.90
2022-09-15T14:37:01.200Z,100820.80
2022-09-15T14:39:23.510Z,100820.61
2022-09-15T14:41:25.049Z,100813.46
2022-09-15T14:43:28.212Z,100809.84
2022-09-15T14:48:08.247Z,100814.55
2022-09-15T14:50:20.159Z,100807.46
2022-09-15T14:52:25.963Z,100800.92
2022-09-15T14:54:36.942Z,100800.21
2022-09-15T14:56:38.515Z,100798.96
2022-09-15T14:58:39.991Z,100802.77
2022-09-15T15:00:45.034Z,100803.02
2022-09-15T15:02:58.245Z,100798.43
2022-09-15T15:05:09.965Z,100798.95
2022-09-15T15:07:27.878Z,100797.32
2022-09-15T15:09:34.738Z,100801.23
2022-09-15T15:11:37.067Z,100800.66
2022-09-15T15:13:39.799Z,100804.47
2022-09-15T15:15:41.367Z,100803.45
2022-09-15T15:17:47.125Z,100806.90
2022-09-15T15:19:48.876Z,100805.19
2022-09-15T15:21:50.959Z,100805.16
2022-09-15T15:23:52.464Z,100807.38
2022-09-15T15:25:55.028Z,100801.98
2022-09-15T15:27:57.434Z,100800.73
2022-09-15T15:30:17.448Z,100802.90
2022-09-15T15:32:22.774Z,100803.90
2022-09-15T15:34:24.310Z,100806.27
2022-09-15T15:36:26.715Z,100810.09
2022-09-15T15:38:28.253Z,100809.73
2022-09-15T15:40:30.067Z,100816.08
2022-09-15T15:42:31.710Z,100822.03
2022-09-15T15:44:33.202Z,100825.31
2022-09-15T15:46:54.087Z,100827.45
2022-09-15T15:48:56.176Z,100828.15
2022-09-15T15:50:57.761Z,100828.67
2022-09-15T15:53:00.100Z,100833.27
2022-09-15T15:55:01.590Z,100830.52
2022-09-15T15:57:06.409Z,100823.29
2022-09-15T15:59:08.866Z,100820.58
2022-09-15T16:01:10.828Z,100820.33
2022-09-15T16:03:12.700Z,100823.31
2022-09-15T16:05:14.260Z,100830.24
2022-09-15T16:07:16.715Z,100827.92
2022-09-15T16:09:18.484Z,100828.28
2022-09-15T16:11:20.923Z,100834.02
2022-09-15T16:13:22.649Z,100837.33
2022-09-15T16:15:24.130Z,100841.48
2022-09-15T16:17:25.659Z,100844.75
2022-09-15T16:19:27.282Z,100845.06
2022-09-15T16:21:32.234Z,100844.09
2022-09-15T16:23:34.045Z,100846.71
2022-09-15T16:25:36.912Z,100848.27
2022-09-15T16:27:38.488Z,100849.19
2022-09-15T16:29:40.034Z,100849.42
2022-09-15T16:31:42.921Z,100852.34
2022-09-15T16:33:44.586Z,100850.92
2022-09-15T16:35:51.401Z,100852.10
2022-09-15T16:37:52.993Z,100852.20
2022-09-15T16:40:09.205Z,100852.33
2022-09-15T16:42:10.777Z,100853.34
2022-09-15T16:44:21.929Z,100848.66
2022-09-15T16:46:23.501Z,100849.45
2022-09-15T16:48:25.419Z,100851.89
2022-09-15T16:50:27.506Z,100852.95
2022-09-15T16:52:29.094Z,100848.61
2022-09-15T16:54:30.653Z,100850.48
2022-09-15T16:56:32.152Z,100858.27
2022-09-15T16:58:33.965Z,100862.63
2022-09-15T17:00:36.173Z,100858.70
2022-09-15T17:02:37.888Z,100858.48
2022-09-15T17:04:39.373Z,100852.83
2022-09-15T17:06:46.531Z,100861.45
2022-09-15T17:08:48.036Z,100863.50
2022-09-15T17:10:49.642Z,100862.08
2022-09-15T17:12:51.226Z,100863.77
2022-09-15T17:14:52.707Z,100870.06
2022-09-15T17:16:54.477Z,100874.57
2022-09-15T17:18:56.068Z,100877.83
2022-09-15T17:20:57.619Z,100876.04
2022-09-15T17:22:59.288Z,100877.18
2022-09-15T17:25:00.870Z,100878.63
2022-09-15T17:27:02.359Z,100881.72
2022-09-15T17:29:04.256Z,100885.09
2022-09-15T17:31:06.922Z,100886.89
2022-09-15T17:33:10.981Z,100883.86
2022-09-15T17:35:16.396Z,100888.15
2022-09-15T17:37:17.906Z,100887.40
2022-09-15T17:39:19.899Z,100890.68
2022-09-15T17:41:22.847Z,100893.84
2022-09-15T17:43:25.606Z,100893.05
2022-09-15T17:45:28.454Z,100891.92
2022-09-15T17:47:31.798Z,100891.77
2022-09-15T17:49:33.347Z,100892.80
2022-09-15T17:51:35.187Z,100892.77
2022-09-15T17:53:37.126Z,100892.58
2022-09-15T17:55:38.653Z,100891.20
2022-09-15T17:57:40.291Z,100895.19
2022-09-15T17:59:41.789Z,100896.14
2022-09-15T18:01:43.373Z,100899.80
2022-09-15T18:03:45.187Z,100902.98
2022-09-15T18:05:47.129Z,100902.81
2022-09-15T18:07:48.722Z,100903.30
2022-09-15T18:09:50.217Z,100906.84
2022-09-15T18:11:51.723Z,100903.92
2022-09-15T18:13:53.296Z,100900.79
2022-09-15T18:15:55.085Z,100904.48
2022-09-15T18:17:57.706Z,100907.25
2022-09-15T18:19:59.526Z,100912.66
2022-09-15T18:22:01.019Z,100915.16
2022-09-15T18:24:02.716Z,100914.30
2022-09-15T18:26:04.229Z,100916.79
2022-09-15T18:28:05.756Z,100916.60
2022-09-15T18:30:07.565Z,100920.02
2022-09-15T18:32:09.081Z,100921.10
2022-09-15T18:34:10.712Z,100930.21
2022-09-15T18:36:12.198Z,100929.20
2022-09-15T18:38:13.769Z,100929.41
2022-09-15T18:40:16.887Z,100931.30
2022-09-15T18:42:18.414Z,100934.11
2022-09-15T18:44:19.948Z,100939.67
2022-09-15T18:46:21.602Z,100941.94
2022-09-15T18:48:23.163Z,100938.56
2022-09-15T18:50:25.575Z,100937.98
2022-09-15T18:52:27.595Z,100944.82
2022-09-15T18:54:29.193Z,100948.98
2022-09-15T18:56:30.750Z,100952.73
2022-09-15T18:58:32.259Z,100953.69
2022-09-15T19:00:33.786Z,100954.30
2022-09-15T19:02:35.569Z,100953.63
2022-09-15T19:04:40.624Z,100961.11
2022-09-15T19:06:42.321Z,100961.10
2022-09-15T19:08:44.000Z,100963.23
2022-09-15T19:10:45.482Z,100964.95
2022-09-15T19:12:47.013Z,100966.05
2022-09-15T19:14:48.566Z,100977.70
2022-09-15T19:16:57.525Z,100977.50
2022-09-15T19:18:59.830Z,100976.56
2022-09-15T19:21:05.554Z,100976.73
2022-09-15T19:23:07.045Z,100977.66
2022-09-15T19:25:08.723Z,100982.35
2022-09-15T19:27:10.331Z,100982.83
2022-09-15T19:29:11.883Z,100984.88
2022-09-15T19:31:13.724Z,100980.92
2022-09-15T19:33:15.288Z,100984.38
2022-09-15T19:35:16.876Z,100982.68
2022-09-15T19:37:19.806Z,100985.03
2022-09-15T19:39:21.373Z,100990.06
2022-09-15T19:41:22.884Z,100994.66
2022-09-15T19:43:24.390Z,100999.52
2022-09-15T19:45:25.927Z,101003.54
2022-09-15T19:47:27.426Z,101007.45
2022-09-15T19:49:29.077Z,101010.95
2022-09-15T19:51:31.480Z,101012.86
2022-09-15T19:53:33.292Z,101014.80
2022-09-15T19:55:34.803Z,101018.23
2022-09-15T19:57:39.871Z,101011.95
2022-09-15T19:59:41.383Z,101017.59
2022-09-15T20:01:43.239Z,101018.17
2022-09-15T20:03:44.983Z,101021.42
2022-09-15T20:05:50.315Z,101023.41
2022-09-15T20:07:51.861Z,101020.36
2022-09-15T20:09:53.433Z,101025.48
2022-09-15T20:11:55.082Z,101027.77
2022-09-15T20:13:56.894Z,101027.05
2022-09-15T20:15:59.522Z,101027.69
2022-09-15T20:18:01.039Z,101028.38
2022-09-15T20:20:02.773Z,101032.52
2022-09-15T20:22:04.586Z,101036.08
2022-09-15T20:24:06.336Z,101038.65
2022-09-15T20:26:09.568Z,101036.91
2022-09-15T20:28:11.082Z,101037.48
2022-09-15T20:30:14.224Z,101038.80
2022-09-15T20:32:15.784Z,101038.95
2022-09-15T20:34:18.648Z,101040.79
2022-09-15T20:36:23.199Z,101044.12
2022-09-15T20:38:24.738Z,101048.96
2022-09-15T20:40:26.518Z,101052.86
2022-09-15T20:42:28.058Z,101049.73
2022-09-15T20:44:29.541Z,101054.11
2022-09-15T20:46:31.465Z,101053.17
2022-09-15T20:48:33.392Z,101053.79
2022-09-15T20:50:34.896Z,101052.73
2022-09-15T20:52:38.573Z,101055.04
2022-09-15T20:54:40.606Z,101063.98
2022-09-15T20:56:42.087Z,101067.31
2022-09-15T20:58:43.815Z,101070.94
2022-09-15T21:00:47.455Z,101072.59
2022-09-15T21:02:52.240Z,101073.64
2022-09-15T21:04:53.774Z,101074.50
2022-09-15T21:06:55.264Z,101074.27
2022-09-15T21:08:57.761Z,101076.64
2022-09-15T21:10:59.475Z,101074.33
2022-09-15T21:13:01.276Z,101073.51
2022-09-15T21:15:03.424Z,101077.73
2022-09-15T21:17:04.941Z,101077.22
2022-09-15T21:19:09.042Z,101079.07
2022-09-15T21:21:10.515Z,101086.05
2022-09-15T21:23:12.483Z,101080.00
2022-09-15T21:25:14.010Z,101082.36
2022-09-15T21:27:27.825Z,101086.66
2022-09-15T21:29:29.425Z,101089.09
2022-09-15T21:31:31.898Z,101096.29
2022-09-15T21:33:33.781Z,101096.67
2022-09-15T21:35:35.294Z,101095.66
2022-09-15T21:37:36.782Z,101097.35
2022-09-15T21:39:38.321Z,101099.42
2022-09-15T21:41:39.846Z,101103.40
2022-09-15T21:43:45.512Z,101109.09
2022-09-15T21:45:52.253Z,101112.75
2022-09-15T21:47:53.879Z,101112.90
2022-09-15T21:49:56.462Z,101116.11
2022-09-15T21:52:03.848Z,101114.05
2022-09-15T21:54:05.435Z,101111.91
2022-09-15T21:56:08.561Z,101114.05
2022-09-15T21:58:10.076Z,101119.70
2022-09-15T22:00:12.282Z,101119.61
2022-09-15T22:02:13.870Z,101122.77
2022-09-15T22:04:15.474Z,101126.06
2022-09-15T22:06:17.286Z,101129.66
2022-09-15T22:08:19.336Z,101126.68
2022-09-15T22:10:20.846Z,101122.70
2022-09-15T22:12:22.385Z,101117.73
2022-09-15T22:14:23.926Z,101123.98
2022-09-15T22:16:25.631Z,101118.98
2022-09-15T22:18:27.253Z,101119.65
2022-09-15T22:20:29.247Z,101119.38
2022-09-15T22:22:30.836Z,101122.89
2022-09-15T22:24:32.531Z,101122.02
2022-09-15T22:26:35.104Z,101124.89
2022-09-15T22:28:36.683Z,101125.45
2022-09-15T22:30:38.224Z,101126.84
2022-09-15T22:32:39.750Z,101125.73
2022-09-15T22:34:41.240Z,101124.68
2022-09-15T22:36:42.774Z,101128.30
2022-09-15T22:38:44.498Z,101129.87
2022-09-15T22:40:46.108Z,101125.85
2022-09-15T22:42:48.364Z,101126.88
2022-09-15T22:44:49.980Z,101123.42
2022-09-15T22:46:52.710Z,101124.53
2022-09-15T22:48:54.276Z,101123.05
2022-09-15T22:50:55.866Z,101123.55
2022-09-15T22:52:57.400Z,101122.95
2022-09-15T22:54:59.068Z,101122.61
2022-09-15T22:57:00.619Z,101119.11
2022-09-15T22:59:02.872Z,101118.55
2022-09-15T23:01:04.516Z,101122.39
2022-09-15T23:03:06.556Z,101119.52
2022-09-15T23:05:09.591Z,101119.72
2022-09-15T23:07:11.214Z,101117.34
2022-09-15T23:09:12.863Z,101122.65
2022-09-15T23:11:14.471Z,101121.86
2022-09-15T23:13:17.248Z,101125.91
2022-09-15T23:15:19.098Z,101125.18
2022-09-15T23:17:20.634Z,101129.66
2022-09-15T23:19:22.177Z,101129.45
2022-09-15T23:21:23.931Z,101129.38
2022-09-15T23:23:25.987Z,101126.59
2022-09-15T23:25:27.565Z,101129.66
2022-09-15T23:27:29.084Z,101128.45
2022-09-15T23:29:30.592Z,101127.45
2022-09-15T23:31:32.182Z,101126.93
2022-09-15T23:33:33.878Z,101129.89
2022-09-15T23:35:35.817Z,101132.10
2022-09-15T23:37:37.397Z,101141.59
2022-09-15T23:39:38.983Z,101142.77
2022-09-15T23:41:43.588Z,101144.66
2022-09-15T23:43:45.358Z,101133.48